Time;durP1;ratioP1;P1;durP2;ratioP2;P2;SDS_P1;SDS_P2;PMS_P1;PMS_P2;Temp;Humidity;BMP_temperature;BMP_pressure;BME280_temperature;BME280_humidity;BME280_pressure;Samples;Min_cycle;Max_cycle;Signal;HPM_P1;HPM_P2
2023/01/17 00:01:07;;;;;;;14.77;2.00;;;13.30;76.50;;;;;;6306818;22;20034;-76
2023/01/17 00:09:51;;;;;;;14.98;2.72;;;13.30;76.40;;;;;;6306838;22;20003;-77
2023/01/17 00:11:56;;;;;;;13.73;2.75;;;13.30;76.30;;;;;;6307100;22;20463;-77
2023/01/17 00:14:21;;;;;;;11.85;2.28;;;13.30;76.20;;;;;;6306807;22;20003;-78
2023/01/17 00:16:47;;;;;;;9.98;2.10;;;13.30;76.20;;;;;;6306663;22;20012;-76
2023/01/17 01:33:45;;;;;;;16.52;2.28;;;13.50;76.40;;;;;;6308945;22;19952;-77
2023/01/17 01:36:11;;;;;;;10.27;2.10;;;13.50;76.30;;;;;;6308500;22;20007;-77
2023/01/17 01:38:37;;;;;;;11.40;2.10;;;13.50;76.20;;;;;;6275904;22;20019;-76
2023/01/17 01:41:03;;;;;;;14.10;2.53;;;13.50;75.90;;;;;;6277473;22;20008;-76
2023/01/17 01:43:41;;;;;;;15.38;3.03;;;13.50;75.70;;;;;;6276932;22;20007;-76
2023/01/17 01:46:10;;;;;;;9.88;1.92;;;13.60;75.60;;;;;;6277368;22;20014;-75
2023/01/17 01:48:39;;;;;;;19.48;2.38;;;13.60;75.60;;;;;;6277388;22;20007;-76
2023/01/17 01:51:10;;;;;;;11.32;2.00;;;13.60;75.40;;;;;;6277353;22;20007;-77
2023/01/17 01:53:39;;;;;;;13.80;2.40;;;13.60;75.30;;;;;;6277116;22;20000;-78
2023/01/17 01:56:08;;;;;;;12.55;2.45;;;13.60;75.20;;;;;;6277451;22;20026;-77
2023/01/17 01:58:36;;;;;;;13.57;2.10;;;13.60;75.20;;;;;;6277359;22;20368;-77
2023/01/17 02:01:04;;;;;;;8.95;1.80;;;13.60;75.10;;;;;;6277255;22;20003;-77
2023/01/17 02:03:31;;;;;;;13.13;2.03;;;13.60;75.20;;;;;;6277366;22;20074;-77
2023/01/17 02:06:03;;;;;;;13.95;2.53;;;13.60;75.10;;;;;;6277102;22;20437;-77
2023/01/17 02:08:29;;;;;;;11.15;2.00;;;13.60;75.10;;;;;;6276998;22;19996;-76
2023/01/17 02:10:55;;;;;;;13.63;2.17;;;13.60;75.10;;;;;;6277078;22;19999;-78
2023/01/17 02:13:21;;;;;;;11.05;2.25;;;13.60;75.00;;;;;;6277070;22;19999;-77
2023/01/17 02:16:03;;;;;;;11.52;2.10;;;13.60;75.20;;;;;;6276748;22;20003;-76
2023/01/17 02:18:54;;;;;;;15.55;2.25;;;13.70;75.30;;;;;;6277155;22;20086;-75
2023/01/17 02:21:28;;;;;;;11.13;2.20;;;13.60;75.40;;;;;;6277144;22;20003;-76
2023/01/17 02:24:05;;;;;;;11.57;2.47;;;13.60;75.50;;;;;;6276930;22;20443;-76
2023/01/17 02:26:47;;;;;;;10.23;1.77;;;13.60;75.30;;;;;;6276886;22;20000;-77
2023/01/17 02:29:40;;;;;;;10.27;1.85;;;13.60;75.20;;;;;;6276873;22;20485;-76
2023/01/17 02:32:30;;;;;;;12.15;1.73;;;13.60;74.90;;;;;;6278063;22;20003;-78
2023/01/17 02:35:19;;;;;;;12.73;2.10;;;13.60;74.50;;;;;;6276861;22;20430;-76
2023/01/17 02:37:57;;;;;;;10.63;2.25;;;13.60;74.60;;;;;;6270736;22;20494;-77
2023/01/17 02:40:28;;;;;;;9.13;2.28;;;13.70;74.40;;;;;;6280478;22;20409;-77
2023/01/17 02:43:10;;;;;;;6.30;1.45;;;13.70;73.90;;;;;;6307476;22;20306;-77
2023/01/17 02:45:36;;;;;;;13.27;1.70;;;13.70;73.80;;;;;;6307727;22;20007;-77
2023/01/17 02:48:06;;;;;;;7.70;1.30;;;13.70;73.90;;;;;;6307660;22;20004;-77
2023/01/17 02:50:44;;;;;;;8.77;1.73;;;13.70;73.90;;;;;;6307491;22;20084;-77
2023/01/17 02:53:29;;;;;;;9.18;1.83;;;13.70;73.70;;;;;;6307643;22;20000;-77
2023/01/17 02:56:03;;;;;;;9.93;1.90;;;13.70;73.80;;;;;;6307545;22;20007;-77
2023/01/17 02:58:35;;;;;;;8.77;1.75;;;13.70;73.80;;;;;;6307445;22;20075;-76
2023/01/17 03:01:38;;;;;;;9.07;1.70;;;13.70;73.50;;;;;;6307476;22;20053;-75
2023/01/17 03:04:46;;;;;;;9.52;1.80;;;13.70;73.60;;;;;;6305763;22;20007;-77
2023/01/17 03:07:16;;;;;;;7.78;1.30;;;13.70;73.60;;;;;;6292111;22;20086;-76
2023/01/17 03:09:44;;;;;;;9.48;1.70;;;13.70;73.40;;;;;;6307218;22;20026;-77
2023/01/17 03:12:11;;;;;;;5.97;1.45;;;13.70;73.30;;;;;;6307299;22;20010;-78
2023/01/17 03:14:37;;;;;;;7.47;1.42;;;13.70;73.30;;;;;;6307253;22;20003;-76
2023/01/17 03:17:03;;;;;;;9.30;1.38;;;13.70;73.30;;;;;;6307367;22;19999;-76
2023/01/17 03:19:30;;;;;;;8.95;1.23;;;13.70;73.30;;;;;;6307084;22;20000;-76
2023/01/17 03:21:56;;;;;;;7.90;1.70;;;13.70;73.30;;;;;;6307134;22;20375;-76
2023/01/17 03:24:21;;;;;;;10.52;1.55;;;13.70;73.30;;;;;;6307749;22;20010;-77
2023/01/17 03:26:47;;;;;;;7.35;1.20;;;13.80;73.50;;;;;;6307387;22;20003;-76
2023/01/17 03:29:16;;;;;;;8.43;2.05;;;13.80;73.50;;;;;;6307068;22;19995;-78
2023/01/17 03:31:42;;;;;;;7.97;1.25;;;13.70;73.30;;;;;;6307068;22;20037;-77
2023/01/17 03:34:08;;;;;;;9.43;1.70;;;13.70;73.40;;;;;;6307292;22;20003;-77
2023/01/17 03:36:34;;;;;;;10.50;1.83;;;13.70;73.60;;;;;;6279841;22;20022;-78
2023/01/17 03:38:59;;;;;;;10.63;1.63;;;13.70;73.70;;;;;;6306982;22;20289;-77
2023/01/17 03:41:25;;;;;;;8.38;1.60;;;13.70;73.90;;;;;;6307120;22;20453;-77
2023/01/17 03:43:51;;;;;;;6.68;1.77;;;13.70;73.90;;;;;;6306944;22;19999;-76
2023/01/17 03:46:24;;;;;;;9.48;1.42;;;13.70;73.90;;;;;;6307167;22;20421;-78
2023/01/17 03:48:50;;;;;;;7.68;1.75;;;13.70;74.00;;;;;;6307125;22;19999;-76
2023/01/17 03:51:16;;;;;;;9.45;1.52;;;13.70;74.10;;;;;;6306784;22;20130;-76
2023/01/17 03:53:42;;;;;;;7.50;1.45;;;13.80;74.60;;;;;;6279785;22;19999;-76
2023/01/17 03:56:08;;;;;;;7.30;1.40;;;13.80;74.80;;;;;;6306780;22;20018;-75
2023/01/17 03:58:34;;;;;;;8.02;1.65;;;13.80;75.20;;;;;;6306924;22;20022;-75
2023/01/17 04:00:59;;;;;;;6.00;1.23;;;13.80;75.50;;;;;;6306966;22;20433;-75
2023/01/17 04:03:25;;;;;;;5.20;1.10;;;13.90;76.00;;;;;;6306708;22;19995;-76
2023/01/17 04:05:51;;;;;;;8.00;1.52;;;13.90;76.30;;;;;;6306778;22;20437;-77
2023/01/17 04:08:17;;;;;;;9.68;1.48;;;13.80;76.50;;;;;;6307039;22;20023;-77
2023/01/17 04:10:42;;;;;;;8.27;1.30;;;13.80;76.90;;;;;;6306700;22;19999;-77
2023/01/17 04:13:08;;;;;;;9.68;1.70;;;13.80;77.30;;;;;;6306993;22;19995;-75
2023/01/17 04:15:34;;;;;;;7.60;1.30;;;13.80;77.60;;;;;;6306517;22;20082;-76
2023/01/17 04:18:00;;;;;;;8.93;1.52;;;13.90;78.00;;;;;;6307028;22;20330;-76
2023/01/17 04:20:33;;;;;;;11.73;1.80;;;13.80;78.10;;;;;;6306569;22;20000;-78
2023/01/17 04:22:58;;;;;;;9.02;1.58;;;13.80;78.30;;;;;;6306587;22;20121;-76
2023/01/17 04:25:24;;;;;;;10.40;1.67;;;13.80;78.60;;;;;;6306688;22;20422;-78
2023/01/17 04:27:53;;;;;;;11.60;2.15;;;13.80;79.00;;;;;;6306413;22;20026;-75
2023/01/17 04:30:19;;;;;;;10.02;1.40;;;13.80;79.20;;;;;;6306664;22;19999;-76
2023/01/17 04:32:44;;;;;;;8.27;1.60;;;13.70;79.50;;;;;;6306445;22;20437;-77
2023/01/17 04:35:10;;;;;;;10.38;1.70;;;13.70;80.10;;;;;;6306480;22;20121;-76
2023/01/17 04:37:36;;;;;;;9.30;1.52;;;13.70;80.10;;;;;;6304196;22;20367;-75
2023/01/17 04:40:02;;;;;;;9.02;1.92;;;13.70;80.70;;;;;;6306493;22;20003;-77
2023/01/17 04:42:28;;;;;;;7.72;1.58;;;13.70;80.70;;;;;;6306323;22;20070;-76
2023/01/17 04:44:54;;;;;;;8.02;1.60;;;13.60;81.50;;;;;;6306652;22;20018;-77
2023/01/17 04:47:20;;;;;;;6.65;2.15;;;13.60;81.90;;;;;;6306501;22;20030;-77
2023/01/17 04:49:45;;;;;;;8.90;1.63;;;13.50;81.80;;;;;;6306687;22;20003;-76
2023/01/17 04:52:11;;;;;;;7.78;1.45;;;13.50;82.10;;;;;;6306712;22;20046;-78
2023/01/17 04:54:37;;;;;;;10.25;1.83;;;13.50;82.10;;;;;;6306453;22;20312;-77
2023/01/17 04:57:02;;;;;;;11.13;1.67;;;13.50;82.40;;;;;;6306609;22;20007;-77
2023/01/17 04:59:28;;;;;;;8.10;1.63;;;13.50;82.90;;;;;;6306516;22;20003;-76
2023/01/17 05:01:54;;;;;;;10.50;1.88;;;13.40;83.20;;;;;;6306549;22;20373;-78
2023/01/17 05:04:19;;;;;;;7.18;1.70;;;13.40;83.40;;;;;;6306384;22;20000;-77
2023/01/17 05:06:45;;;;;;;10.88;1.90;;;13.40;83.70;;;;;;6306436;22;20004;-77
2023/01/17 05:09:11;;;;;;;14.02;2.00;;;13.40;83.70;;;;;;6306482;22;20000;-76
2023/01/17 05:11:36;;;;;;;13.82;1.75;;;13.40;84.10;;;;;;6306466;22;20005;-76
2023/01/17 05:14:02;;;;;;;6.90;1.60;;;13.40;84.20;;;;;;6306498;22;19999;-76
2023/01/17 05:16:28;;;;;;;10.95;1.77;;;13.40;84.40;;;;;;6306400;22;20007;-77
2023/01/17 05:18:53;;;;;;;9.35;1.58;;;13.40;84.70;;;;;;6306152;22;20045;-77
2023/01/17 05:21:20;;;;;;;16.88;3.13;;;13.40;84.90;;;;;;6306222;22;20030;-77
2023/01/17 05:23:46;;;;;;;10.43;2.65;;;13.40;84.90;;;;;;6306722;22;19995;-77
2023/01/17 05:26:12;;;;;;;9.00;1.90;;;13.40;85.10;;;;;;6306783;22;20003;-77
2023/01/17 05:28:38;;;;;;;14.15;2.40;;;13.30;85.20;;;;;;6306352;22;20000;-78
2023/01/17 05:31:04;;;;;;;9.10;2.08;;;13.30;85.40;;;;;;6306623;22;20328;-78
2023/01/17 05:33:30;;;;;;;11.07;2.45;;;13.40;85.60;;;;;;6306317;22;20022;-76
2023/01/17 05:35:56;;;;;;;12.52;2.35;;;13.40;85.90;;;;;;6306347;22;20397;-77
2023/01/17 05:38:22;;;;;;;15.90;2.58;;;13.40;86.00;;;;;;6278639;22;20092;-76
2023/01/17 05:40:48;;;;;;;13.45;2.35;;;13.40;86.20;;;;;;6306198;22;19999;-78
2023/01/17 05:43:14;;;;;;;16.30;2.33;;;13.40;86.50;;;;;;6306550;22;20310;-77
2023/01/17 05:45:40;;;;;;;10.57;2.30;;;13.40;86.20;;;;;;6306520;22;20064;-75
2023/01/17 05:48:06;;;;;;;13.52;2.50;;;13.40;86.30;;;;;;6306252;22;20082;-77
2023/01/17 05:50:34;;;;;;;15.68;2.38;;;13.50;86.70;;;;;;6306284;22;19999;-77
2023/01/17 05:53:06;;;;;;;16.77;2.85;;;13.50;86.70;;;;;;6306388;22;20006;-76
2023/01/17 05:55:32;;;;;;;15.07;2.88;;;13.50;87.20;;;;;;6308222;22;20010;-76
2023/01/17 05:57:58;;;;;;;15.93;3.13;;;13.50;87.10;;;;;;6308187;22;20041;-77
2023/01/17 06:00:24;;;;;;;18.38;3.45;;;13.50;87.10;;;;;;6308078;22;20011;-76
2023/01/17 06:02:53;;;;;;;16.02;3.55;;;13.60;87.20;;;;;;6308411;22;20017;-76
2023/01/17 06:05:20;;;;;;;15.18;3.30;;;13.60;87.40;;;;;;6307814;22;20002;-78
2023/01/17 06:07:46;;;;;;;14.60;3.05;;;13.60;87.40;;;;;;6307718;22;20030;-77
2023/01/17 06:10:16;;;;;;;12.95;2.40;;;13.60;87.90;;;;;;6307805;22;20002;-77
2023/01/17 06:12:43;;;;;;;18.35;3.72;;;13.60;87.60;;;;;;6307937;22;20049;-77
2023/01/17 06:15:11;;;;;;;15.05;3.30;;;13.60;87.80;;;;;;6307527;22;20006;-76
2023/01/17 06:17:37;;;;;;;22.17;4.00;;;13.60;88.20;;;;;;6307950;22;20437;-76
2023/01/17 06:20:04;;;;;;;17.60;4.13;;;13.60;88.10;;;;;;6307553;22;20003;-77
2023/01/17 06:22:30;;;;;;;21.58;3.72;;;13.60;88.20;;;;;;6307987;22;20000;-77
2023/01/17 06:24:55;;;;;;;17.48;3.25;;;13.60;87.90;;;;;;6307871;22;19996;-76
2023/01/17 06:27:21;;;;;;;22.10;3.60;;;13.60;88.20;;;;;;6307695;22;20364;-76
2023/01/17 06:29:47;;;;;;;17.80;4.10;;;13.60;88.30;;;;;;6307714;22;20432;-78
2023/01/17 06:32:13;;;;;;;15.40;3.00;;;13.70;88.60;;;;;;6307755;22;19999;-77
2023/01/17 06:34:39;;;;;;;20.90;3.95;;;13.60;88.40;;;;;;6307343;22;20090;-77
2023/01/17 06:37:05;;;;;;;21.00;3.22;;;13.60;89.20;;;;;;6307504;22;20010;-76
2023/01/17 06:39:31;;;;;;;15.07;3.00;;;13.60;88.60;;;;;;6307538;22;19995;-79
2023/01/17 06:41:56;;;;;;;16.80;3.45;;;13.60;88.70;;;;;;6307626;22;20011;-75
2023/01/17 06:44:23;;;;;;;17.33;3.83;;;13.70;88.70;;;;;;6307309;22;19996;-78
2023/01/17 06:46:48;;;;;;;20.50;3.97;;;13.70;89.10;;;;;;6307506;22;20000;-77
2023/01/17 06:49:14;;;;;;;20.42;3.78;;;13.70;89.00;;;;;;6307580;22;20375;-77
2023/01/17 06:51:40;;;;;;;18.50;4.30;;;13.70;88.90;;;;;;6307680;22;20022;-78
2023/01/17 06:54:06;;;;;;;21.50;4.60;;;13.70;88.90;;;;;;6307188;22;19999;-77
2023/01/17 06:56:32;;;;;;;24.02;5.03;;;13.70;89.10;;;;;;6307287;22;20007;-75
2023/01/17 06:58:58;;;;;;;17.30;4.00;;;13.70;89.40;;;;;;6307340;22;20064;-76
2023/01/17 07:01:23;;;;;;;33.13;5.28;;;13.70;89.60;;;;;;6307245;22;20007;-77
2023/01/17 07:03:51;;;;;;;24.70;4.90;;;13.70;89.20;;;;;;6307599;22;20451;-78
2023/01/17 07:06:17;;;;;;;27.30;5.25;;;13.70;89.50;;;;;;6279437;22;20384;-77
2023/01/17 07:08:43;;;;;;;20.33;4.25;;;13.70;89.60;;;;;;6307587;22;20157;-77
2023/01/17 07:11:09;;;;;;;21.40;4.40;;;13.70;89.70;;;;;;6307566;22;20037;-77
2023/01/17 07:13:36;;;;;;;23.42;4.38;;;13.80;89.90;;;;;;6308014;22;20468;-77
2023/01/17 07:16:03;;;;;;;20.60;4.10;;;13.70;90.00;;;;;;6307756;22;20007;-77
2023/01/17 07:18:29;;;;;;;24.45;5.03;;;13.70;90.00;;;;;;6307901;22;20053;-77
2023/01/17 07:20:55;;;;;;;25.30;4.50;;;13.80;90.20;;;;;;6307209;22;20006;-77
2023/01/17 07:23:22;;;;;;;28.55;6.60;;;13.80;90.50;;;;;;6307196;22;20003;-76
2023/01/17 07:25:52;;;;;;;24.80;5.03;;;13.70;90.40;;;;;;6307287;22;20030;-77
2023/01/17 07:28:18;;;;;;;23.65;5.57;;;13.70;90.50;;;;;;6307138;22;19996;-76
2023/01/17 07:30:43;;;;;;;24.08;5.43;;;13.70;90.60;;;;;;6307259;22;20014;-78
2023/01/17 07:33:09;;;;;;;24.25;4.82;;;13.80;90.60;;;;;;6307211;22;19999;-76
2023/01/17 07:35:35;;;;;;;18.33;4.43;;;13.80;90.70;;;;;;6306754;22;20109;-77
2023/01/17 07:38:02;;;;;;;19.20;4.65;;;13.80;90.80;;;;;;6306781;22;20020;-77
2023/01/17 07:40:28;;;;;;;19.75;3.60;;;13.80;91.00;;;;;;6307280;22;20440;-78
2023/01/17 07:43:12;;;;;;;17.15;3.88;;;13.70;90.90;;;;;;6306916;22;20007;-76
2023/01/17 07:45:50;;;;;;;;;;;13.70;90.80;;;;;;6307325;22;20022;-77
2023/01/17 07:48:18;;;;;;;15.70;2.60;;;13.70;90.80;;;;;;6307023;22;19920;-77
2023/01/17 07:50:44;;;;;;;19.25;3.88;;;13.60;90.70;;;;;;6306895;22;20007;-77
2023/01/17 07:53:10;;;;;;;15.20;3.17;;;13.60;90.70;;;;;;6306868;22;20026;-77
2023/01/17 07:55:35;;;;;;;17.60;3.20;;;13.60;90.60;;;;;;6307083;22;20038;-77
2023/01/17 07:58:01;;;;;;;15.27;3.25;;;13.60;91.00;;;;;;6279490;22;20053;-76
2023/01/17 08:00:28;;;;;;;14.73;3.35;;;13.70;90.90;;;;;;6306777;22;20033;-78
2023/01/17 08:02:58;;;;;;;19.38;3.08;;;13.60;90.90;;;;;;6307282;22;20385;-77
2023/01/17 08:05:24;;;;;;;12.43;3.30;;;13.60;90.90;;;;;;6307301;22;20002;-77
2023/01/17 08:07:50;;;;;;;17.67;3.90;;;13.70;91.00;;;;;;6305178;22;20357;-77
2023/01/17 08:10:17;;;;;;;16.20;3.17;;;13.60;90.90;;;;;;6306910;22;19999;-78
2023/01/17 08:12:47;;;;;;;15.85;3.10;;;13.60;91.00;;;;;;6306899;22;20009;-77
2023/01/17 08:15:14;;;;;;;21.70;4.57;;;13.60;91.00;;;;;;6307083;22;20064;-77
2023/01/17 08:17:48;;;;;;;20.40;4.60;;;13.70;91.20;;;;;;6306658;22;20007;-77
2023/01/17 08:20:15;;;;;;;23.90;4.85;;;13.70;91.20;;;;;;6307401;22;20119;-77
2023/01/17 08:22:41;;;;;;;24.85;5.35;;;13.70;91.30;;;;;;6279619;22;20015;-77
2023/01/17 08:25:07;;;;;;;26.20;4.22;;;13.70;91.30;;;;;;6306899;22;20026;-78
2023/01/17 08:27:33;;;;;;;19.83;4.10;;;13.70;91.30;;;;;;6307172;22;20002;-78
2023/01/17 08:29:58;;;;;;;26.48;4.80;;;13.70;91.50;;;;;;6306661;22;19995;-77
2023/01/17 08:32:24;;;;;;;24.25;4.40;;;13.70;91.50;;;;;;6306790;22;20066;-75
2023/01/17 08:34:50;;;;;;;29.80;5.70;;;13.80;91.70;;;;;;6306774;22;20003;-77
2023/01/17 08:37:15;;;;;;;37.13;6.28;;;13.80;91.70;;;;;;6306724;22;20007;-78
2023/01/17 08:39:41;;;;;;;29.80;5.30;;;13.80;91.70;;;;;;6306761;22;20022;-77
2023/01/17 08:42:07;;;;;;;23.00;5.53;;;13.80;91.80;;;;;;6306703;22;20003;-77
2023/01/17 08:44:32;;;;;;;30.55;5.50;;;13.90;91.90;;;;;;6306562;22;19999;-77
2023/01/17 08:46:58;;;;;;;25.58;5.40;;;13.90;92.00;;;;;;6306455;22;20007;-77
2023/01/17 08:49:24;;;;;;;37.00;6.53;;;13.90;92.10;;;;;;6306272;22;19999;-77
2023/01/17 08:51:51;;;;;;;36.88;6.10;;;13.90;92.30;;;;;;6306885;22;20492;-78
2023/01/17 08:54:17;;;;;;;35.38;6.20;;;14.00;92.30;;;;;;6306358;22;20310;-77
2023/01/17 08:56:45;;;;;;;43.83;6.85;;;14.00;92.40;;;;;;6306595;22;20473;-78
2023/01/17 08:59:11;;;;;;;32.88;5.65;;;14.10;92.50;;;;;;6279225;22;20328;-79
2023/01/17 09:01:40;;;;;;;41.47;6.30;;;14.20;92.60;;;;;;6306341;22;20003;-78
2023/01/17 09:04:10;;;;;;;38.92;5.85;;;14.30;92.70;;;;;;6278874;22;20014;-77
2023/01/17 09:06:40;;;;;;;33.17;6.35;;;14.30;92.70;;;;;;6279492;22;20086;-78
2023/01/17 09:09:07;;;;;;;31.52;5.88;;;14.30;92.70;;;;;;6304544;22;20336;-78
2023/01/17 09:11:33;;;;;;;34.13;6.28;;;14.30;92.80;;;;;;6306498;22;20066;-77
2023/01/17 09:14:00;;;;;;;29.33;5.75;;;14.40;92.70;;;;;;6306290;22;19999;-76
2023/01/17 09:16:26;;;;;;;42.97;8.15;;;14.40;92.90;;;;;;6306421;22;20061;-77
2023/01/17 09:18:54;;;;;;;30.08;5.80;;;14.50;92.70;;;;;;6306192;22;19995;-77
2023/01/17 09:21:20;;;;;;;31.70;5.75;;;14.60;92.70;;;;;;6306085;22;20010;-78
2023/01/17 09:23:46;;;;;;;39.53;7.65;;;14.60;92.80;;;;;;6305871;22;20413;-78
2023/01/17 09:26:21;;;;;;;40.17;6.82;;;14.70;92.60;;;;;;6278521;22;20035;-78
2023/01/17 09:28:47;;;;;;;39.80;7.03;;;14.70;92.70;;;;;;6306719;22;19995;-77
2023/01/17 09:31:14;;;;;;;47.67;7.43;;;14.70;92.70;;;;;;6308064;22;20003;-79
2023/01/17 09:33:41;;;;;;;25.95;5.75;;;14.70;92.80;;;;;;6308591;22;20002;-79
2023/01/17 09:36:08;;;;;;;29.92;5.63;;;14.70;92.80;;;;;;6308052;22;20017;-78
2023/01/17 09:38:34;;;;;;;41.65;6.28;;;14.70;92.90;;;;;;6308042;22;20031;-78
2023/01/17 09:41:01;;;;;;;35.70;6.35;;;14.70;92.90;;;;;;6308176;22;20004;-77
2023/01/17 09:43:44;;;;;;;39.50;8.43;;;14.80;92.90;;;;;;6307549;22;20027;-76
2023/01/17 09:46:23;;;;;;;41.65;7.40;;;14.80;93.00;;;;;;6307782;22;20022;-76
2023/01/17 09:49:07;;;;;;;40.38;6.80;;;14.80;92.90;;;;;;6307822;22;19999;-77
2023/01/17 09:51:33;;;;;;;31.45;5.82;;;14.90;93.00;;;;;;6307785;22;19999;-78
2023/01/17 09:54:01;;;;;;;36.53;6.38;;;15.00;92.90;;;;;;6307784;22;20000;-77
2023/01/17 09:56:35;;;;;;;30.10;5.47;;;15.20;92.90;;;;;;6307633;22;20125;-78
2023/01/17 09:59:26;;;;;;;34.95;5.63;;;15.20;92.70;;;;;;6307996;22;20074;-77
2023/01/17 10:01:55;;;;;;;35.15;6.30;;;15.30;92.50;;;;;;6307582;22;20000;-77
2023/01/17 10:04:54;;;;;;;35.05;7.95;;;15.40;92.50;;;;;;6307359;22;20010;-76
2023/01/17 10:07:37;;;;;;;33.50;6.75;;;15.50;92.40;;;;;;6250183;22;20191;-78
2023/01/17 10:10:47;;;;;;;15.98;3.45;;;15.50;92.40;;;;;;6307306;22;19999;-77
2023/01/17 10:13:23;;;;;;;35.45;7.53;;;15.60;92.40;;;;;;6182723;23;20005;-77
2023/01/17 10:16:00;;;;;;;25.17;5.22;;;15.70;92.40;;;;;;6182907;23;20048;-77
2023/01/17 10:18:29;;;;;;;32.97;6.18;;;15.70;92.40;;;;;;6258983;22;20007;-77
2023/01/17 10:21:13;;;;;;;32.45;5.68;;;15.80;92.30;;;;;;6307425;22;20429;-78
2023/01/17 10:24:20;;;;;;;30.42;5.97;;;15.80;92.40;;;;;;6307521;22;19999;-78
2023/01/17 10:26:51;;;;;;;29.27;5.75;;;15.80;92.20;;;;;;6182707;23;20001;-78
2023/01/17 10:29:18;;;;;;;32.30;6.53;;;15.90;92.30;;;;;;6182430;23;20395;-78
2023/01/17 10:31:55;;;;;;;27.35;6.55;;;15.90;92.20;;;;;;6246941;22;20061;-78
2023/01/17 10:34:26;;;;;;;27.35;5.88;;;15.90;92.30;;;;;;6307105;22;19999;-78
2023/01/17 10:37:00;;;;;;;25.42;4.72;;;15.80;92.00;;;;;;6307245;22;20278;-78
2023/01/17 10:39:28;;;;;;;;;;;15.80;92.20;;;;;;6307514;22;20011;-77
2023/01/17 10:41:59;;;;;;;27.80;4.30;;;15.70;92.10;;;;;;6307621;22;20316;-78
2023/01/17 10:44:36;;;;;;;26.90;4.20;;;15.70;92.20;;;;;;6307126;22;19999;-77
2023/01/17 10:47:10;;;;;;;30.40;5.10;;;15.60;92.00;;;;;;6307099;22;20026;-78
2023/01/17 10:49:45;;;;;;;26.70;5.03;;;15.60;92.20;;;;;;6306890;22;20076;-77
2023/01/17 10:52:17;;;;;;;34.90;6.38;;;15.50;92.40;;;;;;6306912;22;20052;-79
2023/01/17 10:54:52;;;;;;;23.90;5.25;;;15.50;92.20;;;;;;6305390;22;20030;-79
2023/01/17 10:57:26;;;;;;;32.08;6.45;;;15.50;92.00;;;;;;6307409;22;20421;-77
2023/01/17 10:59:58;;;;;;;31.50;6.22;;;15.50;92.20;;;;;;6307204;22;20003;-76
2023/01/17 11:02:28;;;;;;;27.60;5.65;;;15.50;92.30;;;;;;6306669;22;20000;-78
2023/01/17 11:04:56;;;;;;;25.52;5.57;;;15.50;92.30;;;;;;6306844;22;20014;-77
2023/01/17 11:07:26;;;;;;;34.22;6.60;;;15.50;92.30;;;;;;6306579;22;20307;-78
2023/01/17 11:09:54;;;;;;;31.00;5.40;;;15.50;92.30;;;;;;6306423;22;20424;-78
2023/01/17 11:12:26;;;;;;;26.13;5.60;;;15.50;92.20;;;;;;6306805;22;20116;-77
2023/01/17 11:15:04;;;;;;;25.48;5.20;;;15.50;92.20;;;;;;6306653;22;20349;-78
2023/01/17 11:17:31;;;;;;;33.97;6.60;;;15.60;92.00;;;;;;6278969;22;20049;-78
2023/01/17 11:20:22;;;;;;;31.52;4.93;;;15.60;92.10;;;;;;6307098;22;20004;-77
2023/01/17 11:23:19;;;;;;;32.28;6.55;;;15.60;91.90;;;;;;6306651;22;20064;-79
2023/01/17 11:25:56;;;;;;;38.20;5.80;;;15.60;92.00;;;;;;6279392;22;20007;-78
2023/01/17 11:28:31;;;;;;;30.60;7.40;;;15.60;92.20;;;;;;6306720;22;20274;-78
2023/01/17 11:31:26;;;;;;;37.53;7.55;;;15.60;92.20;;;;;;6306694;22;20493;-78
2023/01/17 11:34:21;;;;;;;39.47;6.43;;;15.60;92.10;;;;;;6280212;22;20013;-79
2023/01/17 11:36:48;;;;;;;30.55;5.50;;;15.60;92.00;;;;;;6306579;22;20015;-78
2023/01/17 11:39:16;;;;;;;26.92;4.93;;;15.60;92.10;;;;;;6306716;22;20043;-77
2023/01/17 11:41:43;;;;;;;30.77;5.15;;;15.60;92.10;;;;;;6279561;22;20014;-79
2023/01/17 11:44:33;;;;;;;32.25;5.32;;;15.60;92.00;;;;;;6307220;22;20003;-77
2023/01/17 11:47:15;;;;;;;28.83;5.63;;;15.70;91.80;;;;;;6306559;22;19999;-79
2023/01/17 11:49:47;;;;;;;33.83;5.65;;;15.70;92.00;;;;;;6306737;22;20070;-79
2023/01/17 11:52:22;;;;;;;31.20;4.93;;;15.80;91.90;;;;;;6306570;22;20045;-79
2023/01/17 11:54:49;;;;;;;28.25;4.30;;;15.80;91.80;;;;;;6280460;22;20038;-79
2023/01/17 11:57:33;;;;;;;26.27;5.40;;;15.90;91.80;;;;;;6306721;22;20003;-77
2023/01/17 12:00:22;;;;;;;22.30;4.53;;;15.90;91.60;;;;;;6306196;22;20042;-77
2023/01/17 12:03:02;;;;;;;23.48;4.63;;;15.90;91.50;;;;;;6306313;22;20074;-78
2023/01/17 12:05:52;;;;;;;24.38;4.50;;;15.90;91.20;;;;;;6306556;22;20034;-78
2023/01/17 12:08:45;;;;;;;27.73;5.07;;;15.90;91.00;;;;;;6306855;22;20078;-79
2023/01/17 12:11:29;;;;;;;25.42;4.72;;;15.90;91.10;;;;;;6307234;22;20003;-78
2023/01/17 12:14:06;;;;;;;22.05;4.38;;;15.90;91.00;;;;;;6307971;22;20013;-78
2023/01/17 12:16:52;;;;;;;25.63;3.75;;;15.90;90.60;;;;;;6307972;22;20007;-78
2023/01/17 12:19:44;;;;;;;16.13;3.53;;;16.00;90.60;;;;;;6307105;22;20347;-78
2023/01/17 12:22:19;;;;;;;25.80;3.90;;;15.90;90.50;;;;;;6306837;22;20061;-79
2023/01/17 12:25:04;;;;;;;19.15;4.05;;;16.00;90.40;;;;;;6306814;22;19996;-78
2023/01/17 12:27:30;;;;;;;22.67;3.97;;;16.00;90.20;;;;;;6306827;22;20388;-74
2023/01/17 12:30:22;;;;;;;26.23;4.53;;;16.10;90.40;;;;;;6306648;22;20044;-79
2023/01/17 12:32:59;;;;;;;20.95;4.45;;;16.10;90.50;;;;;;6244207;22;20030;-78
2023/01/17 12:35:32;;;;;;;26.17;4.78;;;16.10;90.30;;;;;;6306445;22;20004;-78
2023/01/17 12:38:11;;;;;;;29.15;5.97;;;16.10;90.50;;;;;;6306202;22;20019;-77
2023/01/17 12:40:43;;;;;;;32.55;6.00;;;16.20;90.40;;;;;;6306516;22;20121;-78
2023/01/17 12:43:28;;;;;;;29.63;6.00;;;16.20;90.40;;;;;;6279377;22;20010;-78
2023/01/17 12:45:54;;;;;;;29.35;5.35;;;16.20;90.70;;;;;;6306898;22;19999;-78
2023/01/17 12:48:22;;;;;;;24.60;5.00;;;16.20;90.60;;;;;;6306310;22;20064;-76
2023/01/17 12:51:14;;;;;;;26.77;5.00;;;16.20;90.60;;;;;;6306193;22;20015;-78
2023/01/17 12:53:55;;;;;;;24.30;4.07;;;16.20;90.40;;;;;;6278830;22;20007;-79
2023/01/17 12:56:42;;;;;;;20.77;5.57;;;16.10;90.40;;;;;;6306569;22;20042;-77
2023/01/17 12:59:29;;;;;;;26.80;5.03;;;16.10;90.40;;;;;;6278478;22;20014;-77
2023/01/17 13:01:57;;;;;;;23.27;5.07;;;16.10;90.40;;;;;;6306517;22;20007;-77
2023/01/17 13:04:35;;;;;;;24.30;3.75;;;16.10;90.70;;;;;;6307829;22;20429;-76
2023/01/17 13:07:28;;;;;;;25.23;4.03;;;16.00;90.50;;;;;;6308461;22;20429;-77
2023/01/17 13:10:26;;;;;;;26.48;4.82;;;16.00;90.60;;;;;;6308229;22;20424;-77
2023/01/17 13:12:56;;;;;;;27.23;5.20;;;16.00;90.60;;;;;;6308142;22;20358;-77
2023/01/17 13:15:27;;;;;;;27.55;5.13;;;16.00;91.00;;;;;;6308434;22;20302;-78
2023/01/17 13:18:05;;;;;;;28.27;4.30;;;16.00;90.90;;;;;;6308435;22;19999;-77
2023/01/17 13:21:19;;;;;;;26.50;4.55;;;16.00;90.60;;;;;;6308221;22;20057;-77
2023/01/17 13:24:04;;;;;;;18.98;3.20;;;16.10;90.60;;;;;;6283650;22;20007;-78
2023/01/17 13:26:52;;;;;;;23.00;3.53;;;16.10;90.30;;;;;;6308671;22;20425;-78
2023/01/17 13:29:44;;;;;;;19.10;3.25;;;16.00;90.10;;;;;;6306984;22;20014;-79
2023/01/17 13:32:28;;;;;;;20.45;3.30;;;16.00;90.50;;;;;;6319619;22;19999;-78
2023/01/17 13:35:21;;;;;;;22.95;3.92;;;16.00;90.00;;;;;;6323635;22;20000;-78
2023/01/17 13:37:50;;;;;;;17.30;3.45;;;16.00;90.10;;;;;;6323258;22;20072;-78
2023/01/17 13:40:39;;;;;;;21.40;3.60;;;16.10;90.10;;;;;;6308552;22;20373;-77
2023/01/17 13:43:13;;;;;;;26.88;4.20;;;16.10;90.20;;;;;;6307808;22;19999;-79
2023/01/17 13:45:38;;;;;;;20.98;3.78;;;16.10;90.40;;;;;;6308174;22;20003;-77
2023/01/17 13:48:17;;;;;;;19.27;3.50;;;16.10;90.30;;;;;;6307598;22;20322;-76
2023/01/17 13:50:45;;;;;;;20.83;4.03;;;16.10;90.20;;;;;;6307835;22;20018;-77
2023/01/17 13:53:38;;;;;;;18.63;3.55;;;16.10;90.20;;;;;;6307700;22;20017;-77
2023/01/17 13:56:23;;;;;;;17.67;3.83;;;16.10;90.10;;;;;;6307744;22;20008;-73
2023/01/17 13:58:53;;;;;;;14.77;3.15;;;16.10;90.30;;;;;;6307957;22;19999;-78
2023/01/17 14:01:21;;;;;;;18.55;4.10;;;16.10;90.00;;;;;;6280252;22;20058;-78
2023/01/17 14:03:50;;;;;;;23.33;5.18;;;16.00;90.10;;;;;;6307802;22;20079;-79
2023/01/17 14:06:34;;;;;;;19.83;3.13;;;16.00;90.10;;;;;;6307224;22;20025;-78
2023/01/17 14:09:02;;;;;;;;;;;16.10;90.20;;;;;;6308380;22;20003;-77
2023/01/17 14:11:33;;;;;;;17.83;3.67;;;16.10;90.20;;;;;;6307425;22;19905;-77
2023/01/17 14:14:34;;;;;;;19.52;3.60;;;16.10;90.20;;;;;;6307560;22;20401;-78
2023/01/17 14:17:19;;;;;;;19.48;3.55;;;16.20;90.20;;;;;;6307480;22;20011;-77
2023/01/17 14:19:47;;;;;;;20.65;4.25;;;16.40;90.10;;;;;;6307546;22;20003;-78
2023/01/17 14:22:25;;;;;;;21.73;3.70;;;16.60;90.00;;;;;;6280192;22;20008;-78
2023/01/17 14:25:08;;;;;;;23.48;4.13;;;16.70;90.00;;;;;;6307449;22;20307;-77